Metar Cercanos

 

LEPA - Palma De Mallorc, Spain
Distance from station: ONO 38km
Actualización: Fri, 01-Dec-2023 7:00am CET
Few Clouds
Few Clouds
 Viento del SO
Viento: SO 22 km/h
Temperatura: 19°C
Rocío: 15°C
Humedad: 78%
Barómetro: 1000 hPa
Clouds: Few Clouds
Visibility: 10 km
Cloud details: Few Clouds 762 m
2023/12/01 06:00 LEPA 010600Z 23012KT 9999 FEW025 19/15 Q1000 NOSIG
LEMH - Mahon/Menorca Is, Spain
Distance from station: ENE 105km
Actualización: Fri, 01-Dec-2023 7:00am CET
Few Clouds
Few Clouds
 Viento del SO
Viento: SO 26 km/h
Temperatura: 18°C
Rocío: 16°C
Humedad: 88%
Barómetro: 1000 hPa
Clouds: Few Clouds
Visibility: 10 km
Cloud details: Few Clouds 457 m
2023/12/01 06:00 LEMH 010600Z 22014KT 200V260 9999 FEW015 18/16 Q1000
 
LEIB - Ibiza/Es Codola, Spain
Distance from station: OSO 165km
Actualización: Fri, 01-Dec-2023 7:00am CET
Despejado
Despejado
 Viento del SO
Viento: SO 31 km/h
Temperatura: 19°C
Rocío: 14°C
Humedad: 73%
Barómetro: 999 hPa
Resumen: Despejado
Visibility: greater than 10 km
2023/12/01 06:00 LEIB 010600Z 23017KT CAVOK 19/14 Q0999 NOSIG
LEBL - Barcelona Airpor, Spain
Distance from station: NNO 225km
Actualización: Fri, 01-Dec-2023 7:00am CET
Few Clouds
Few Clouds
 Viento del S
Viento: S 6 km/h
Temperatura: 15°C
Rocío: 14°C
Humedad: 94%
Barómetro: 996 hPa
Clouds: Few Clouds
Visibility: 7 km
Cloud details: Few Clouds 366 m
2023/12/01 06:00 LEBL 010600Z 18003KT 7000 FEW012 15/14 Q0996 NOSIG
 
LEVC - Valencia (civ/Mi, Spain
Distance from station: NO 188km
Actualización: Fri, 01-Dec-2023 7:00am CET
Despejado
Despejado
 Viento del OSO
Viento: OSO 11 km/h
Temperatura: 17°C
Rocío: 9°C
Humedad: 59%
Barómetro: 997 hPa
Resumen: Despejado
Visibility: greater than 10 km
2023/12/01 06:00 LEVC 010600Z 24006KT CAVOK 17/09 Q0997 NOSIG
LEGE - Gerona/Costa Bra, Spain
Distance from station: N 276km
Actualización: Fri, 01-Dec-2023 7:00am CET
Parcialmente nuboso
Parcialmente nuboso
 Viento del NNO
Viento: NNO 6 km/h
Temperatura: 12°C
Rocío: 11°C
Humedad: 94%
Barómetro: 997 hPa
Clouds: Parcialmente nuboso
Visibility: 10 km
Cloud details: Parcialmente nuboso 305 m
Parcialmente nuboso 2438 m
2023/12/01 06:00 LEGE 010600Z 34003KT 300V020 9999 SCT010 SCT080 12/11 Q0997
 
LEAL - Alicante/El Alte, Spain
Distance from station: OSO 344km
Actualización: Fri, 01-Dec-2023 7:00am CET
Despejado
Despejado
 Viento del O
Viento: O 7 km/h
Temperatura: 11°C
Rocío: 10°C
Humedad: 94%
Barómetro: 1000 hPa
Resumen: Despejado
Visibility: greater than 10 km
2023/12/01 06:00 LEAL 010600Z 27004KT CAVOK 11/10 Q1000 NOSIG
LEAM - Almeria Airport, Spain
Distance from station: SSO 56km
Actualización: Fri, 01-Dec-2023 7:00am CET
Few Clouds
Few Clouds
 Viento del SSO
Viento: SSO 26 km/h
Temperatura: 18°C
Rocío: 12°C
Humedad: 68%
Barómetro: 1003 hPa
Clouds: Few Clouds
Visibility: 10 km
Cloud details: Few Clouds 914 m
2023/12/01 06:00 LEAM 010600Z 21014KT 190V250 9999 FEW030 18/12 Q1003
 
LEZG - Zaragoza (mil/Ci, Spain
Distance from station: NO 431km
Actualización: Fri, 01-Dec-2023 7:00am CET
Lluvia débil, Muy nuboso
Lluvia débil, Muy nuboso
 Viento del O
Viento: O 19 km/h
Temperatura: 10°C
Sensación frio: 7°C
Rocío: 9°C
Humedad: 94%
Barómetro: 998 hPa
Resumen: Lluvia débil
Clouds: Muy nuboso
Visibility: 10 km
Cloud details: Few Clouds 305 m
Parcialmente nuboso 1372 m
Muy nuboso 2438 m
2023/12/01 06:00 LEZG 010600Z 28010KT 9999 -RA FEW010 SCT045 BKN080 10/09 Q0998
LEMD - Madrid/Barajas, Spain
Distance from station: ONO 234km
Actualización: Fri, 01-Dec-2023 7:00am CET
Lluvia débil, Cubierto
Lluvia débil, Cubierto
 Viento del calm
Viento: Calma
Temperatura: 8°C
Rocío: 6°C
Humedad: 87%
Barómetro: 999 hPa
Resumen: Lluvia débil
Clouds: Cubierto
Visibility: 10 km
Cloud details: Cubierto 1158 m
2023/12/01 06:00 LEMD 010600Z 00000KT 9999 -RA OVC038 08/06 Q0999 NOSIG
 
LEGR - Granada Airport, Spain
Distance from station: OSO 62km
Actualización: Fri, 01-Dec-2023 7:00am CET
Parcialmente nuboso
Parcialmente nuboso
 Viento del OSO
Viento: OSO 24 km/h
Temperatura: 16°C
Rocío: 7°C
Humedad: 55%
Barómetro: 1004 hPa
Clouds: Parcialmente nuboso
Visibility: 10 km
Cloud details: Few Clouds 914 m
Parcialmente nuboso 2896 m
2023/12/01 06:00 LEGR 010600Z 24013KT 220V280 9999 FEW030 SCT095 16/07 Q1004
LEMG - Malaga (civ/Mil), Spain
Distance from station: OSO 227km
Actualización: Fri, 01-Dec-2023 7:00am CET
Few Clouds
Few Clouds
 Viento del E
Viento: E 11 km/h
Temperatura: 17°C
Rocío: 12°C
Humedad: 73%
Barómetro: 1004 hPa
Clouds: Few Clouds
Visibility: 10 km
Cloud details: Few Clouds 1829 m
2023/12/01 06:00 LEMG 010600Z 10006KT 060V120 9999 FEW060 17/12 Q1004 NOSIG
 
LEZL - Sevilla (civ/Mil, Spain
Distance from station: S 318km
Actualización: Fri, 01-Dec-2023 7:00am CET
Lluvia débil, Few clouds
Lluvia débil, Few clouds
 Viento del ONO
Viento: ONO 11 km/h
Temperatura: 12°C
Rocío: 11°C
Humedad: 94%
Barómetro: 1004 hPa
Resumen: Lluvia débil
Clouds: Few Clouds
Visibility: 10 km
Cloud details: Few Clouds 1402 m
2023/12/01 06:00 LEZL 010600Z 29006KT 9999 -RA FEW046 12/11 Q1004 NOSIG
LEVT - Vitoria, Spain
Distance from station: NO 226km
Actualización: Fri, 01-Dec-2023 7:20am CET
Lluvia, Parcialmente nuboso
Lluvia, Parcialmente nuboso
 Viento del varies
Viento: varies 2 km/h
Temperatura: 6°C
Rocío: 6°C
Humedad: 100%
Barómetro: 998 hPa
Resumen: Lluvia
Clouds: Parcialmente nuboso
Visibility: 4 km
Cloud details: Muy nuboso 122 m
Parcialmente nuboso 366 m
2023/12/01 06:20 LEVT 010620Z VRB01KT 4000 RA BKN004 SCT012 06/06 Q0998
 
LEBB - Bilbao/Sondica, Spain
Distance from station: NNO 235km
Actualización: Fri, 01-Dec-2023 7:00am CET
Lluvia débil, Cubierto
Lluvia débil, Cubierto
 Viento del ONO
Viento: ONO 4 km/h
Temperatura: 9°C
Rocío: 9°C
Humedad: 100%
Barómetro: 999 hPa
Resumen: Lluvia débil
Clouds: Cubierto
Visibility: 8 km
Cloud details: Few Clouds 610 m
Muy nuboso 1097 m
Cubierto 1280 m
2023/12/01 06:00 LEBB 010600Z 30002KT 8000 -RA FEW020 BKN036 OVC042 09/09 Q0999 NOSIG
LESO - San Sebastian/Fu, Spain
Distance from station: N 231km
Actualización: Fri, 01-Dec-2023 7:00am CET
Lluvia débil, Muy nuboso
Lluvia débil, Muy nuboso
 Viento del varies
Viento: varies 4 km/h
Temperatura: 10°C
Rocío: 9°C
Humedad: 94%
Barómetro: 999 hPa
Resumen: Lluvia débil
Clouds: Muy nuboso
Visibility: 5 km
Cloud details: Parcialmente nuboso 305 m
Muy nuboso 610 m
2023/12/01 06:00 LESO 010600Z VRB02KT 5000 -RA SCT010 BKN020 10/09 Q0999
 
LEVD - Valladolid(Mil/C, Spain
Distance from station: ONO 239km
Actualización: Fri, 01-Dec-2023 7:00am CET
Cubierto
Cubierto
 Viento del O
Viento: O 20 km/h
Temperatura: 2°C
Sensación frio: -3°C
Rocío: 2°C
Humedad: 100%
Barómetro: 1000 hPa
Clouds: Cubierto
Visibility: 10 km
Cloud details: Muy nuboso 183 m
Cubierto 457 m
2023/12/01 06:00 LEVD 010600Z 26011KT 9999 BKN006 OVC015 02/02 Q1000
LESA - Salamanca (civ/M, Spain
Distance from station: ONO 349km
Actualización: Fri, 01-Dec-2023 7:00am CET
Despejado
Despejado
 Viento del OSO
Viento: OSO 7 km/h
Temperatura: 2°C
Sensación frio: 0°C
Rocío: 1°C
Humedad: 93%
Barómetro: 1001 hPa
Resumen: Despejado
Visibility: greater than 10 km
2023/12/01 06:00 LESA 010600Z 25004KT CAVOK 02/01 Q1001
 
LEXJ - Santander/Paraya, Spain
Distance from station: NNO 247km
Actualización: Fri, 01-Dec-2023 7:00am CET
Parcialmente nuboso
Parcialmente nuboso
 Viento del SO
Viento: SO 15 km/h
Temperatura: 9°C
Sensación frio: 7°C
Rocío: 5°C
Humedad: 76%
Barómetro: 999 hPa
Clouds: Parcialmente nuboso
Visibility: 10 km
Cloud details: Few Clouds 1890 m
Parcialmente nuboso 2438 m
2023/12/01 06:00 LEXJ 010600Z 23008KT 9999 FEW062 SCT080 09/05 Q0999
LEAS - Asturias/Aviles, Spain
Distance from station: NO 214km
Actualización: Fri, 01-Dec-2023 7:00am CET
Lluvia débil, Showers, Muy nuboso
Lluvia débil, Showers, Muy nuboso
 Viento del SO
Viento: SO 19 km/h
Temperatura: 8°C
Sensación frio: 4°C
Rocío: 5°C
Humedad: 82%
Barómetro: 999 hPa
Resumen: Lluvia débil, Showers
Clouds: Muy nuboso
Visibility: 10 km
Cloud details: Few Clouds 396 m
Few Clouds 914 m
Muy nuboso 1036 m
2023/12/01 06:00 LEAS 010600Z 23010KT 9999 -SHRA FEW013 FEW030TCU BKN034 08/05 Q0999 NOSIG
 
LECO - La Coruna/Alvedr, Spain
Distance from station: ONO 222km
Actualización: Fri, 01-Dec-2023 7:00am CET
Parcialmente nuboso
Parcialmente nuboso
 Viento del NO
Viento: NO 11 km/h
Temperatura: 9°C
Sensación frio: 7°C
Rocío: 6°C
Humedad: 82%
Barómetro: 1002 hPa
Clouds: Parcialmente nuboso
Visibility: 10 km
Cloud details: Parcialmente nuboso 1067 m
Parcialmente nuboso 1372 m
2023/12/01 06:00 LECO 010600Z 32006KT 280V010 9999 SCT035 SCT045 09/06 Q1002 TEMPO 3000 SHRA SCT030TCU
LEVX - Vigo/Peinador, Spain
Distance from station: O 214km
Actualización: Fri, 01-Dec-2023 7:22am CET
Niebla, Muy nuboso
Niebla, Muy nuboso
 Viento del SSO
Viento: SSO 11 km/h
Temperatura: 6°C
Sensación frio: 4°C
Rocío: 6°C
Humedad: 100%
Barómetro: 1003 hPa
Resumen: Niebla
Clouds: Muy nuboso
Visibility: 0 km
Cloud details: Few Clouds 30 m
Muy nuboso 91 m
Muy nuboso 183 m
2023/12/01 06:22 LEVX 010622Z 21006KT 0400 R19/1800D R01/1500D FG FEW001 BKN003 BKN006 06/06 Q1003 TEMPO SHRA SCT020TCU